sensor_id;sensor_type;location;lat;lon;timestamp;temperature;humidity
66140;DHT22;52945;51.908;8.364;2023-05-07T00:00:50;19.00;62.10
66140;DHT22;52945;51.908;8.364;2023-05-07T00:03:51;18.90;62.10
66140;DHT22;52945;51.908;8.364;2023-05-07T00:06:52;18.90;62.10
66140;DHT22;52945;51.908;8.364;2023-05-07T00:09:52;18.80;61.90
66140;DHT22;52945;51.908;8.364;2023-05-07T00:12:53;18.80;61.60
66140;DHT22;52945;51.908;8.364;2023-05-07T00:15:53;18.70;62.00
66140;DHT22;52945;51.908;8.364;2023-05-07T00:18:54;18.80;62.00
66140;DHT22;52945;51.908;8.364;2023-05-07T00:21:54;18.70;62.00
66140;DHT22;52945;51.908;8.364;2023-05-07T00:24:56;18.70;62.00
66140;DHT22;52945;51.908;8.364;2023-05-07T00:27:56;18.70;62.20
66140;DHT22;52945;51.908;8.364;2023-05-07T00:31:02;18.70;62.10
66140;DHT22;52945;51.908;8.364;2023-05-07T00:34:03;18.70;62.20
66140;DHT22;52945;51.908;8.364;2023-05-07T00:37:03;18.70;62.20
66140;DHT22;52945;51.908;8.364;2023-05-07T00:40:05;18.70;62.50
66140;DHT22;52945;51.908;8.364;2023-05-07T00:43:07;18.70;62.30
66140;DHT22;52945;51.908;8.364;2023-05-07T00:46:08;18.60;62.40
66140;DHT22;52945;51.908;8.364;2023-05-07T00:49:08;18.60;62.30
66140;DHT22;52945;51.908;8.364;2023-05-07T00:52:11;18.60;62.40
66140;DHT22;52945;51.908;8.364;2023-05-07T00:55:13;18.60;62.30
66140;DHT22;52945;51.908;8.364;2023-05-07T00:58:14;18.60;62.40
66140;DHT22;52945;51.908;8.364;2023-05-07T01:01:15;18.60;62.40
66140;DHT22;52945;51.908;8.364;2023-05-07T01:04:18;18.60;62.40
66140;DHT22;52945;51.908;8.364;2023-05-07T01:07:19;18.50;62.40
66140;DHT22;52945;51.908;8.364;2023-05-07T01:10:20;18.50;62.30
66140;DHT22;52945;51.908;8.364;2023-05-07T01:13:20;18.60;62.60
66140;DHT22;52945;51.908;8.364;2023-05-07T01:16:21;18.50;62.60
66140;DHT22;52945;51.908;8.364;2023-05-07T01:19:22;18.50;62.40
66140;DHT22;52945;51.908;8.364;2023-05-07T01:22:31;18.50;62.70
66140;DHT22;52945;51.908;8.364;2023-05-07T01:25:32;18.40;62.50
66140;DHT22;52945;51.908;8.364;2023-05-07T01:28:33;18.40;62.50
66140;DHT22;52945;51.908;8.364;2023-05-07T01:31:34;18.40;62.50
66140;DHT22;52945;51.908;8.364;2023-05-07T01:34:36;18.40;62.70
66140;DHT22;52945;51.908;8.364;2023-05-07T01:37:39;18.30;62.70
66140;DHT22;52945;51.908;8.364;2023-05-07T01:40:40;18.30;62.80
66140;DHT22;52945;51.908;8.364;2023-05-07T01:43:42;18.30;62.80
66140;DHT22;52945;51.908;8.364;2023-05-07T01:46:42;18.30;62.70
66140;DHT22;52945;51.908;8.364;2023-05-07T01:49:43;18.30;62.80
66140;DHT22;52945;51.908;8.364;2023-05-07T01:52:44;18.30;62.80
66140;DHT22;52945;51.908;8.364;2023-05-07T01:55:44;18.30;62.90
66140;DHT22;52945;51.908;8.364;2023-05-07T01:58:45;18.30;62.70
66140;DHT22;52945;51.908;8.364;2023-05-07T02:01:49;18.20;62.70
66140;DHT22;52945;51.908;8.364;2023-05-07T02:04:49;18.20;62.90
66140;DHT22;52945;51.908;8.364;2023-05-07T02:07:50;18.20;62.70
66140;DHT22;52945;51.908;8.364;2023-05-07T02:10:51;18.20;62.80
66140;DHT22;52945;51.908;8.364;2023-05-07T02:13:51;18.20;62.90
66140;DHT22;52945;51.908;8.364;2023-05-07T02:16:53;18.20;62.80
66140;DHT22;52945;51.908;8.364;2023-05-07T02:19:53;18.20;62.70
66140;DHT22;52945;51.908;8.364;2023-05-07T02:22:54;18.20;62.70
66140;DHT22;52945;51.908;8.364;2023-05-07T02:25:54;18.10;62.80
66140;DHT22;52945;51.908;8.364;2023-05-07T02:28:55;18.10;62.70
66140;DHT22;52945;51.908;8.364;2023-05-07T02:31:55;18.10;62.70
66140;DHT22;52945;51.908;8.364;2023-05-07T02:34:56;18.00;62.80
66140;DHT22;52945;51.908;8.364;2023-05-07T02:37:56;18.00;62.90
66140;DHT22;52945;51.908;8.364;2023-05-07T02:40:57;18.00;62.90
66140;DHT22;52945;51.908;8.364;2023-05-07T02:43:58;17.90;62.80
66140;DHT22;52945;51.908;8.364;2023-05-07T02:46:58;17.90;62.90
66140;DHT22;52945;51.908;8.364;2023-05-07T02:49:59;17.80;62.90
66140;DHT22;52945;51.908;8.364;2023-05-07T02:53:00;17.80;62.80
66140;DHT22;52945;51.908;8.364;2023-05-07T02:56:00;17.80;63.00
66140;DHT22;52945;51.908;8.364;2023-05-07T02:59:01;17.80;63.10
66140;DHT22;52945;51.908;8.364;2023-05-07T03:02:02;17.80;63.10
66140;DHT22;52945;51.908;8.364;2023-05-07T03:05:02;17.70;63.00
66140;DHT22;52945;51.908;8.364;2023-05-07T03:08:04;17.70;62.90
66140;DHT22;52945;51.908;8.364;2023-05-07T03:11:04;17.70;62.90
66140;DHT22;52945;51.908;8.364;2023-05-07T03:14:05;17.70;63.10
66140;DHT22;52945;51.908;8.364;2023-05-07T03:17:06;17.70;63.00
66140;DHT22;52945;51.908;8.364;2023-05-07T03:20:07;17.70;63.20
66140;DHT22;52945;51.908;8.364;2023-05-07T03:23:07;17.60;63.30
66140;DHT22;52945;51.908;8.364;2023-05-07T03:26:08;17.70;63.30
66140;DHT22;52945;51.908;8.364;2023-05-07T03:29:08;17.60;63.50
66140;DHT22;52945;51.908;8.364;2023-05-07T03:32:09;17.50;63.50
66140;DHT22;52945;51.908;8.364;2023-05-07T03:35:10;17.60;63.40
66140;DHT22;52945;51.908;8.364;2023-05-07T03:38:11;17.50;63.30
66140;DHT22;52945;51.908;8.364;2023-05-07T03:41:11;17.50;63.40
66140;DHT22;52945;51.908;8.364;2023-05-07T03:44:12;17.50;63.60
66140;DHT22;52945;51.908;8.364;2023-05-07T03:47:13;17.50;63.40
66140;DHT22;52945;51.908;8.364;2023-05-07T03:50:13;17.50;63.60
66140;DHT22;52945;51.908;8.364;2023-05-07T03:53:14;17.40;63.50
66140;DHT22;52945;51.908;8.364;2023-05-07T03:56:15;17.50;63.50
66140;DHT22;52945;51.908;8.364;2023-05-07T03:59:16;17.40;63.50
66140;DHT22;52945;51.908;8.364;2023-05-07T04:02:16;17.40;63.50
66140;DHT22;52945;51.908;8.364;2023-05-07T04:05:17;17.40;63.80
66140;DHT22;52945;51.908;8.364;2023-05-07T04:08:17;17.40;63.50
66140;DHT22;52945;51.908;8.364;2023-05-07T04:11:18;17.30;63.60
66140;DHT22;52945;51.908;8.364;2023-05-07T04:14:18;17.30;63.70
66140;DHT22;52945;51.908;8.364;2023-05-07T04:17:19;17.30;63.80
66140;DHT22;52945;51.908;8.364;2023-05-07T04:20:20;17.30;63.80
66140;DHT22;52945;51.908;8.364;2023-05-07T04:23:20;17.20;63.90
66140;DHT22;52945;51.908;8.364;2023-05-07T04:26:21;17.20;63.90
66140;DHT22;52945;51.908;8.364;2023-05-07T04:29:22;17.20;63.80
66140;DHT22;52945;51.908;8.364;2023-05-07T04:32:22;17.20;63.90
66140;DHT22;52945;51.908;8.364;2023-05-07T04:35:25;17.20;64.00
66140;DHT22;52945;51.908;8.364;2023-05-07T04:38:25;17.20;63.90
66140;DHT22;52945;51.908;8.364;2023-05-07T04:41:26;17.10;64.10
66140;DHT22;52945;51.908;8.364;2023-05-07T04:44:26;17.10;64.10
66140;DHT22;52945;51.908;8.364;2023-05-07T04:47:27;17.10;64.00
66140;DHT22;52945;51.908;8.364;2023-05-07T04:50:28;17.10;64.00
66140;DHT22;52945;51.908;8.364;2023-05-07T04:53:29;17.10;63.90
66140;DHT22;52945;51.908;8.364;2023-05-07T04:56:29;17.00;63.80
66140;DHT22;52945;51.908;8.364;2023-05-07T04:59:30;16.90;64.10
66140;DHT22;52945;51.908;8.364;2023-05-07T05:02:31;17.00;64.10
66140;DHT22;52945;51.908;8.364;2023-05-07T05:05:31;17.00;63.80
66140;DHT22;52945;51.908;8.364;2023-05-07T05:08:32;17.00;63.90
66140;DHT22;52945;51.908;8.364;2023-05-07T05:11:32;17.00;64.00
66140;DHT22;52945;51.908;8.364;2023-05-07T05:14:33;17.00;63.80
66140;DHT22;52945;51.908;8.364;2023-05-07T05:17:33;17.00;63.80
66140;DHT22;52945;51.908;8.364;2023-05-07T05:20:35;17.00;63.70
66140;DHT22;52945;51.908;8.364;2023-05-07T05:23:36;17.00;63.70
66140;DHT22;52945;51.908;8.364;2023-05-07T05:26:36;17.10;63.70
66140;DHT22;52945;51.908;8.364;2023-05-07T05:29:37;17.10;63.70
66140;DHT22;52945;51.908;8.364;2023-05-07T05:32:37;17.10;63.60
66140;DHT22;52945;51.908;8.364;2023-05-07T05:35:38;17.10;63.30
66140;DHT22;52945;51.908;8.364;2023-05-07T05:38:39;17.10;63.40
66140;DHT22;52945;51.908;8.364;2023-05-07T05:41:40;17.10;63.60
66140;DHT22;52945;51.908;8.364;2023-05-07T05:44:41;17.10;63.70
66140;DHT22;52945;51.908;8.364;2023-05-07T05:47:41;17.10;63.40
66140;DHT22;52945;51.908;8.364;2023-05-07T05:50:42;17.00;63.30
66140;DHT22;52945;51.908;8.364;2023-05-07T05:53:43;17.00;63.60
66140;DHT22;52945;51.908;8.364;2023-05-07T05:56:43;17.00;63.50
66140;DHT22;52945;51.908;8.364;2023-05-07T05:59:44;17.00;63.40
66140;DHT22;52945;51.908;8.364;2023-05-07T06:02:45;17.10;63.30
66140;DHT22;52945;51.908;8.364;2023-05-07T06:05:45;17.10;63.40
66140;DHT22;52945;51.908;8.364;2023-05-07T06:08:46;17.10;63.00
66140;DHT22;52945;51.908;8.364;2023-05-07T06:11:47;17.10;63.00
66140;DHT22;52945;51.908;8.364;2023-05-07T06:14:47;17.10;62.90
66140;DHT22;52945;51.908;8.364;2023-05-07T06:17:48;17.10;62.80
66140;DHT22;52945;51.908;8.364;2023-05-07T06:20:49;17.00;62.70
66140;DHT22;52945;51.908;8.364;2023-05-07T06:23:50;17.00;62.70
66140;DHT22;52945;51.908;8.364;2023-05-07T06:26:52;17.00;62.70
66140;DHT22;52945;51.908;8.364;2023-05-07T06:29:53;17.00;62.70
66140;DHT22;52945;51.908;8.364;2023-05-07T06:32:53;17.10;62.80
66140;DHT22;52945;51.908;8.364;2023-05-07T06:35:54;17.10;62.70
66140;DHT22;52945;51.908;8.364;2023-05-07T06:38:54;17.10;62.40
66140;DHT22;52945;51.908;8.364;2023-05-07T06:41:55;17.00;62.50
66140;DHT22;52945;51.908;8.364;2023-05-07T06:44:55;17.00;62.60
66140;DHT22;52945;51.908;8.364;2023-05-07T06:47:56;17.00;62.40
66140;DHT22;52945;51.908;8.364;2023-05-07T06:50:57;17.00;62.50
66140;DHT22;52945;51.908;8.364;2023-05-07T06:53:58;17.00;62.30
66140;DHT22;52945;51.908;8.364;2023-05-07T06:56:58;17.10;62.40
66140;DHT22;52945;51.908;8.364;2023-05-07T06:59:59;17.10;62.30
66140;DHT22;52945;51.908;8.364;2023-05-07T07:02:59;17.10;62.10
66140;DHT22;52945;51.908;8.364;2023-05-07T07:06:01;17.20;61.90
66140;DHT22;52945;51.908;8.364;2023-05-07T07:09:02;17.20;61.90
66140;DHT22;52945;51.908;8.364;2023-05-07T07:12:03;17.20;61.90
66140;DHT22;52945;51.908;8.364;2023-05-07T07:15:04;17.30;62.00
66140;DHT22;52945;51.908;8.364;2023-05-07T07:18:04;17.40;61.80
66140;DHT22;52945;51.908;8.364;2023-05-07T07:21:05;17.50;61.60
66140;DHT22;52945;51.908;8.364;2023-05-07T07:24:06;17.50;61.20
66140;DHT22;52945;51.908;8.364;2023-05-07T07:27:06;17.60;61.20
66140;DHT22;52945;51.908;8.364;2023-05-07T07:30:07;17.60;61.30
66140;DHT22;52945;51.908;8.364;2023-05-07T07:33:08;17.70;61.40
66140;DHT22;52945;51.908;8.364;2023-05-07T07:36:09;17.70;60.60
66140;DHT22;52945;51.908;8.364;2023-05-07T07:39:10;17.60;60.80
66140;DHT22;52945;51.908;8.364;2023-05-07T07:42:10;17.50;60.90
66140;DHT22;52945;51.908;8.364;2023-05-07T07:45:11;17.60;61.20
66140;DHT22;52945;51.908;8.364;2023-05-07T07:48:12;17.60;61.00
66140;DHT22;52945;51.908;8.364;2023-05-07T07:51:12;17.60;61.00
66140;DHT22;52945;51.908;8.364;2023-05-07T07:54:13;17.60;60.90
66140;DHT22;52945;51.908;8.364;2023-05-07T07:57:14;17.70;61.20
66140;DHT22;52945;51.908;8.364;2023-05-07T08:00:15;17.70;61.00
66140;DHT22;52945;51.908;8.364;2023-05-07T08:03:16;17.70;60.40
66140;DHT22;52945;51.908;8.364;2023-05-07T08:06:17;17.70;60.80
66140;DHT22;52945;51.908;8.364;2023-05-07T08:09:17;17.70;60.50
66140;DHT22;52945;51.908;8.364;2023-05-07T08:12:18;17.80;60.60
66140;DHT22;52945;51.908;8.364;2023-05-07T08:15:19;17.90;60.70
66140;DHT22;52945;51.908;8.364;2023-05-07T08:18:19;18.00;60.60
66140;DHT22;52945;51.908;8.364;2023-05-07T08:21:20;18.10;60.10
66140;DHT22;52945;51.908;8.364;2023-05-07T08:24:21;18.10;59.80
66140;DHT22;52945;51.908;8.364;2023-05-07T08:27:21;18.20;59.50
66140;DHT22;52945;51.908;8.364;2023-05-07T08:30:22;18.20;59.90
66140;DHT22;52945;51.908;8.364;2023-05-07T08:33:22;18.40;59.50
66140;DHT22;52945;51.908;8.364;2023-05-07T08:36:23;18.50;58.80
66140;DHT22;52945;51.908;8.364;2023-05-07T08:39:23;18.50;58.60
66140;DHT22;52945;51.908;8.364;2023-05-07T08:42:27;18.70;58.50
66140;DHT22;52945;51.908;8.364;2023-05-07T08:45:30;18.70;58.20
66140;DHT22;52945;51.908;8.364;2023-05-07T08:48:33;18.80;58.00
66140;DHT22;52945;51.908;8.364;2023-05-07T08:51:33;18.80;57.00
66140;DHT22;52945;51.908;8.364;2023-05-07T08:54:36;18.90;57.50
66140;DHT22;52945;51.908;8.364;2023-05-07T08:57:37;19.10;57.50
66140;DHT22;52945;51.908;8.364;2023-05-07T09:00:38;19.20;57.10
66140;DHT22;52945;51.908;8.364;2023-05-07T09:03:40;19.30;57.30
66140;DHT22;52945;51.908;8.364;2023-05-07T09:06:42;19.40;56.70
66140;DHT22;52945;51.908;8.364;2023-05-07T09:09:43;19.50;56.10
66140;DHT22;52945;51.908;8.364;2023-05-07T09:12:46;19.60;56.20
66140;DHT22;52945;51.908;8.364;2023-05-07T09:15:47;19.70;55.80
66140;DHT22;52945;51.908;8.364;2023-05-07T09:18:48;20.00;55.60
66140;DHT22;52945;51.908;8.364;2023-05-07T09:21:58;20.10;54.60
66140;DHT22;52945;51.908;8.364;2023-05-07T09:25:00;20.40;55.20
66140;DHT22;52945;51.908;8.364;2023-05-07T09:28:01;20.50;54.50
66140;DHT22;52945;51.908;8.364;2023-05-07T09:31:01;20.70;53.50
66140;DHT22;52945;51.908;8.364;2023-05-07T09:34:02;20.80;52.10
66140;DHT22;52945;51.908;8.364;2023-05-07T09:37:05;21.00;52.00
66140;DHT22;52945;51.908;8.364;2023-05-07T09:40:06;21.20;52.00
66140;DHT22;52945;51.908;8.364;2023-05-07T09:43:12;21.20;51.50
66140;DHT22;52945;51.908;8.364;2023-05-07T09:46:14;21.20;51.10
66140;DHT22;52945;51.908;8.364;2023-05-07T09:49:23;21.20;51.40
66140;DHT22;52945;51.908;8.364;2023-05-07T09:52:24;21.20;50.70
66140;DHT22;52945;51.908;8.364;2023-05-07T09:55:29;21.20;51.20
66140;DHT22;52945;51.908;8.364;2023-05-07T09:58:30;21.30;50.80
66140;DHT22;52945;51.908;8.364;2023-05-07T10:01:33;21.30;50.70
66140;DHT22;52945;51.908;8.364;2023-05-07T10:04:36;21.30;50.60
66140;DHT22;52945;51.908;8.364;2023-05-07T10:07:37;21.30;50.50
66140;DHT22;52945;51.908;8.364;2023-05-07T10:10:38;21.40;50.50
66140;DHT22;52945;51.908;8.364;2023-05-07T10:13:38;21.30;50.50
66140;DHT22;52945;51.908;8.364;2023-05-07T10:16:41;21.50;50.90
66140;DHT22;52945;51.908;8.364;2023-05-07T10:19:44;21.50;50.80
66140;DHT22;52945;51.908;8.364;2023-05-07T10:22:47;21.60;50.50
66140;DHT22;52945;51.908;8.364;2023-05-07T10:25:48;21.60;50.30
66140;DHT22;52945;51.908;8.364;2023-05-07T10:28:54;21.60;50.10
66140;DHT22;52945;51.908;8.364;2023-05-07T10:32:14;21.70;50.70
66140;DHT22;52945;51.908;8.364;2023-05-07T10:35:24;21.80;50.80
66140;DHT22;52945;51.908;8.364;2023-05-07T10:38:26;21.80;50.40
66140;DHT22;52945;51.908;8.364;2023-05-07T10:41:27;21.90;50.00
66140;DHT22;52945;51.908;8.364;2023-05-07T10:44:28;22.10;50.40
66140;DHT22;52945;51.908;8.364;2023-05-07T10:47:29;22.10;49.20
66140;DHT22;52945;51.908;8.364;2023-05-07T10:50:30;22.20;50.10
66140;DHT22;52945;51.908;8.364;2023-05-07T10:53:31;22.30;49.30
66140;DHT22;52945;51.908;8.364;2023-05-07T10:56:31;22.60;49.00
66140;DHT22;52945;51.908;8.364;2023-05-07T10:59:34;22.70;49.10
66140;DHT22;52945;51.908;8.364;2023-05-07T11:06:10;22.80;47.90
66140;DHT22;52945;51.908;8.364;2023-05-07T11:09:11;22.80;48.10
66140;DHT22;52945;51.908;8.364;2023-05-07T11:12:11;22.90;48.30
66140;DHT22;52945;51.908;8.364;2023-05-07T11:15:32;22.90;47.80
66140;DHT22;52945;51.908;8.364;2023-05-07T11:18:55;23.00;47.80
66140;DHT22;52945;51.908;8.364;2023-05-07T11:21:56;23.20;47.70
66140;DHT22;52945;51.908;8.364;2023-05-07T11:24:59;23.20;47.80
66140;DHT22;52945;51.908;8.364;2023-05-07T11:28:07;23.50;47.80
66140;DHT22;52945;51.908;8.364;2023-05-07T11:31:11;23.60;47.50
66140;DHT22;52945;51.908;8.364;2023-05-07T11:34:12;23.60;46.20
66140;DHT22;52945;51.908;8.364;2023-05-07T11:37:17;23.60;46.90
66140;DHT22;52945;51.908;8.364;2023-05-07T11:40:18;23.70;46.40
66140;DHT22;52945;51.908;8.364;2023-05-07T11:43:19;23.90;46.30
66140;DHT22;52945;51.908;8.364;2023-05-07T11:46:20;24.00;46.60
66140;DHT22;52945;51.908;8.364;2023-05-07T11:49:20;24.10;46.10
66140;DHT22;52945;51.908;8.364;2023-05-07T11:52:25;24.30;45.60
66140;DHT22;52945;51.908;8.364;2023-05-07T11:55:25;24.50;45.70
66140;DHT22;52945;51.908;8.364;2023-05-07T11:58:26;24.50;44.30
66140;DHT22;52945;51.908;8.364;2023-05-07T12:01:27;24.60;45.00
66140;DHT22;52945;51.908;8.364;2023-05-07T12:04:30;24.70;44.50
66140;DHT22;52945;51.908;8.364;2023-05-07T12:07:33;24.70;44.40
66140;DHT22;52945;51.908;8.364;2023-05-07T12:10:34;24.70;43.90
66140;DHT22;52945;51.908;8.364;2023-05-07T12:13:34;24.70;44.10
66140;DHT22;52945;51.908;8.364;2023-05-07T12:16:35;24.80;43.70
66140;DHT22;52945;51.908;8.364;2023-05-07T12:19:37;24.80;43.80
66140;DHT22;52945;51.908;8.364;2023-05-07T12:22:38;24.70;43.50
66140;DHT22;52945;51.908;8.364;2023-05-07T12:25:40;24.70;43.10
66140;DHT22;52945;51.908;8.364;2023-05-07T12:28:43;24.70;42.90
66140;DHT22;52945;51.908;8.364;2023-05-07T12:31:44;24.60;43.40
66140;DHT22;52945;51.908;8.364;2023-05-07T12:34:45;24.30;43.30
66140;DHT22;52945;51.908;8.364;2023-05-07T12:37:55;24.40;43.80
66140;DHT22;52945;51.908;8.364;2023-05-07T12:40:55;24.30;44.40
66140;DHT22;52945;51.908;8.364;2023-05-07T12:43:56;24.30;44.40
66140;DHT22;52945;51.908;8.364;2023-05-07T12:46:58;24.30;44.30
66140;DHT22;52945;51.908;8.364;2023-05-07T12:49:59;24.50;44.80
66140;DHT22;52945;51.908;8.364;2023-05-07T12:53:00;24.60;44.70
66140;DHT22;52945;51.908;8.364;2023-05-07T12:56:00;24.40;43.80
66140;DHT22;52945;51.908;8.364;2023-05-07T12:59:01;24.40;44.60
66140;DHT22;52945;51.908;8.364;2023-05-07T13:02:02;24.50;44.80
66140;DHT22;52945;51.908;8.364;2023-05-07T13:05:02;24.50;44.10
66140;DHT22;52945;51.908;8.364;2023-05-07T13:08:03;24.50;44.10
66140;DHT22;52945;51.908;8.364;2023-05-07T13:11:04;24.50;44.00
66140;DHT22;52945;51.908;8.364;2023-05-07T13:14:05;24.70;44.40
66140;DHT22;52945;51.908;8.364;2023-05-07T13:17:06;24.70;43.50
66140;DHT22;52945;51.908;8.364;2023-05-07T13:20:08;24.70;43.40
66140;DHT22;52945;51.908;8.364;2023-05-07T13:23:09;24.70;42.90
66140;DHT22;52945;51.908;8.364;2023-05-07T13:26:10;24.60;43.10
66140;DHT22;52945;51.908;8.364;2023-05-07T13:29:10;24.50;43.60
66140;DHT22;52945;51.908;8.364;2023-05-07T13:32:11;24.60;44.20
66140;DHT22;52945;51.908;8.364;2023-05-07T13:35:11;24.70;44.30
66140;DHT22;52945;51.908;8.364;2023-05-07T13:38:12;24.80;44.00
66140;DHT22;52945;51.908;8.364;2023-05-07T13:41:13;25.00;43.70
66140;DHT22;52945;51.908;8.364;2023-05-07T13:44:14;25.00;43.00
66140;DHT22;52945;51.908;8.364;2023-05-07T13:47:15;24.90;43.20
66140;DHT22;52945;51.908;8.364;2023-05-07T13:50:16;25.00;42.80
66140;DHT22;52945;51.908;8.364;2023-05-07T13:53:17;25.00;42.10
66140;DHT22;52945;51.908;8.364;2023-05-07T13:56:18;24.90;42.90
66140;DHT22;52945;51.908;8.364;2023-05-07T13:59:20;24.80;42.70
66140;DHT22;52945;51.908;8.364;2023-05-07T14:02:21;24.70;42.80
66140;DHT22;52945;51.908;8.364;2023-05-07T14:05:22;24.60;42.50
66140;DHT22;52945;51.908;8.364;2023-05-07T14:08:26;24.50;42.60
66140;DHT22;52945;51.908;8.364;2023-05-07T14:11:26;24.40;43.60
66140;DHT22;52945;51.908;8.364;2023-05-07T14:14:27;24.40;43.70
66140;DHT22;52945;51.908;8.364;2023-05-07T14:17:28;24.40;43.30
66140;DHT22;52945;51.908;8.364;2023-05-07T14:20:28;24.40;43.50
66140;DHT22;52945;51.908;8.364;2023-05-07T14:23:31;24.40;43.90
66140;DHT22;52945;51.908;8.364;2023-05-07T14:26:32;24.40;44.50
66140;DHT22;52945;51.908;8.364;2023-05-07T14:29:32;24.40;44.00
66140;DHT22;52945;51.908;8.364;2023-05-07T14:32:35;24.40;43.90
66140;DHT22;52945;51.908;8.364;2023-05-07T14:35:36;24.40;44.10
66140;DHT22;52945;51.908;8.364;2023-05-07T14:38:37;24.40;43.50
66140;DHT22;52945;51.908;8.364;2023-05-07T14:41:37;24.40;43.20
66140;DHT22;52945;51.908;8.364;2023-05-07T14:44:38;24.40;43.10
66140;DHT22;52945;51.908;8.364;2023-05-07T14:47:40;24.30;43.50
66140;DHT22;52945;51.908;8.364;2023-05-07T14:50:42;24.30;44.00
66140;DHT22;52945;51.908;8.364;2023-05-07T14:53:42;24.30;44.30
66140;DHT22;52945;51.908;8.364;2023-05-07T14:56:43;24.30;44.40
66140;DHT22;52945;51.908;8.364;2023-05-07T14:59:43;24.30;44.60
66140;DHT22;52945;51.908;8.364;2023-05-07T15:02:44;24.40;44.00
66140;DHT22;52945;51.908;8.364;2023-05-07T15:05:45;24.40;44.00
66140;DHT22;52945;51.908;8.364;2023-05-07T15:08:45;24.30;44.30
66140;DHT22;52945;51.908;8.364;2023-05-07T15:11:46;24.20;44.30
66140;DHT22;52945;51.908;8.364;2023-05-07T15:14:46;24.20;44.50
66140;DHT22;52945;51.908;8.364;2023-05-07T15:17:47;24.20;45.00
66140;DHT22;52945;51.908;8.364;2023-05-07T15:20:48;24.20;44.90
66140;DHT22;52945;51.908;8.364;2023-05-07T15:23:48;24.20;44.60
66140;DHT22;52945;51.908;8.364;2023-05-07T15:26:49;24.20;44.40
66140;DHT22;52945;51.908;8.364;2023-05-07T15:29:49;24.10;44.40
66140;DHT22;52945;51.908;8.364;2023-05-07T15:32:51;24.00;44.60
66140;DHT22;52945;51.908;8.364;2023-05-07T15:35:51;23.70;44.70
66140;DHT22;52945;51.908;8.364;2023-05-07T15:38:52;23.70;45.30
66140;DHT22;52945;51.908;8.364;2023-05-07T15:41:52;23.70;45.20
66140;DHT22;52945;51.908;8.364;2023-05-07T15:44:53;23.60;45.50
66140;DHT22;52945;51.908;8.364;2023-05-07T15:47:54;23.60;45.40
66140;DHT22;52945;51.908;8.364;2023-05-07T15:50:54;23.60;45.80
66140;DHT22;52945;51.908;8.364;2023-05-07T15:53:55;23.60;46.10
66140;DHT22;52945;51.908;8.364;2023-05-07T15:56:55;23.70;46.30
66140;DHT22;52945;51.908;8.364;2023-05-07T15:59:56;23.70;45.80
66140;DHT22;52945;51.908;8.364;2023-05-07T16:02:57;23.70;45.60
66140;DHT22;52945;51.908;8.364;2023-05-07T16:05:57;23.60;45.80
66140;DHT22;52945;51.908;8.364;2023-05-07T16:09:00;23.40;46.10
66140;DHT22;52945;51.908;8.364;2023-05-07T16:12:00;23.30;46.10
66140;DHT22;52945;51.908;8.364;2023-05-07T16:15:01;23.30;46.30
66140;DHT22;52945;51.908;8.364;2023-05-07T16:18:01;23.30;46.20
66140;DHT22;52945;51.908;8.364;2023-05-07T16:21:02;23.20;46.30
66140;DHT22;52945;51.908;8.364;2023-05-07T16:24:03;23.30;46.40
66140;DHT22;52945;51.908;8.364;2023-05-07T16:27:04;23.30;46.30
66140;DHT22;52945;51.908;8.364;2023-05-07T16:30:06;23.30;46.50
66140;DHT22;52945;51.908;8.364;2023-05-07T16:33:07;23.40;46.60
66140;DHT22;52945;51.908;8.364;2023-05-07T16:36:08;23.30;46.30
66140;DHT22;52945;51.908;8.364;2023-05-07T16:39:09;23.30;46.40
66140;DHT22;52945;51.908;8.364;2023-05-07T16:42:09;23.20;45.90
66140;DHT22;52945;51.908;8.364;2023-05-07T16:45:10;23.20;46.30
66140;DHT22;52945;51.908;8.364;2023-05-07T16:48:11;23.20;46.30
66140;DHT22;52945;51.908;8.364;2023-05-07T16:51:11;23.10;46.00
66140;DHT22;52945;51.908;8.364;2023-05-07T16:54:12;23.10;46.50
66140;DHT22;52945;51.908;8.364;2023-05-07T16:57:13;23.10;46.40
66140;DHT22;52945;51.908;8.364;2023-05-07T17:00:14;23.00;46.10
66140;DHT22;52945;51.908;8.364;2023-05-07T17:03:14;22.90;46.20
66140;DHT22;52945;51.908;8.364;2023-05-07T17:06:15;22.90;46.50
66140;DHT22;52945;51.908;8.364;2023-05-07T17:09:16;22.70;46.80
66140;DHT22;52945;51.908;8.364;2023-05-07T17:12:16;22.70;46.90
66140;DHT22;52945;51.908;8.364;2023-05-07T17:15:17;22.70;47.10
66140;DHT22;52945;51.908;8.364;2023-05-07T17:18:18;22.50;46.90
66140;DHT22;52945;51.908;8.364;2023-05-07T17:21:19;22.40;47.40
66140;DHT22;52945;51.908;8.364;2023-05-07T17:24:19;22.40;48.00
66140;DHT22;52945;51.908;8.364;2023-05-07T17:27:20;22.40;48.10
66140;DHT22;52945;51.908;8.364;2023-05-07T17:30:20;22.40;48.10
66140;DHT22;52945;51.908;8.364;2023-05-07T17:33:21;22.30;48.10
66140;DHT22;52945;51.908;8.364;2023-05-07T17:36:22;22.30;47.90
66140;DHT22;52945;51.908;8.364;2023-05-07T17:39:22;22.20;48.00
66140;DHT22;52945;51.908;8.364;2023-05-07T17:42:23;22.20;48.30
66140;DHT22;52945;51.908;8.364;2023-05-07T17:45:24;22.10;48.40
66140;DHT22;52945;51.908;8.364;2023-05-07T17:48:24;22.00;48.40
66140;DHT22;52945;51.908;8.364;2023-05-07T17:51:25;22.00;48.50
66140;DHT22;52945;51.908;8.364;2023-05-07T17:54:28;22.00;48.50
66140;DHT22;52945;51.908;8.364;2023-05-07T17:57:29;22.00;48.80
66140;DHT22;52945;51.908;8.364;2023-05-07T18:00:30;21.80;48.80
66140;DHT22;52945;51.908;8.364;2023-05-07T18:03:31;21.90;48.90
66140;DHT22;52945;51.908;8.364;2023-05-07T18:06:33;21.90;49.00
66140;DHT22;52945;51.908;8.364;2023-05-07T18:09:33;21.80;48.80
66140;DHT22;52945;51.908;8.364;2023-05-07T18:12:34;21.80;48.90
66140;DHT22;52945;51.908;8.364;2023-05-07T18:15:35;21.70;48.30
66140;DHT22;52945;51.908;8.364;2023-05-07T18:18:35;21.70;48.30
66140;DHT22;52945;51.908;8.364;2023-05-07T18:21:36;21.60;48.20
66140;DHT22;52945;51.908;8.364;2023-05-07T18:24:36;21.60;48.10
66140;DHT22;52945;51.908;8.364;2023-05-07T18:27:37;21.50;48.30
66140;DHT22;52945;51.908;8.364;2023-05-07T18:30:38;21.40;48.50
66140;DHT22;52945;51.908;8.364;2023-05-07T18:33:38;21.30;48.80
66140;DHT22;52945;51.908;8.364;2023-05-07T18:36:39;21.30;48.90
66140;DHT22;52945;51.908;8.364;2023-05-07T18:39:40;21.20;48.90
66140;DHT22;52945;51.908;8.364;2023-05-07T18:42:42;21.20;49.10
66140;DHT22;52945;51.908;8.364;2023-05-07T18:45:46;21.20;49.10
66140;DHT22;52945;51.908;8.364;2023-05-07T18:48:47;21.10;49.10
66140;DHT22;52945;51.908;8.364;2023-05-07T18:51:48;21.10;49.20
66140;DHT22;52945;51.908;8.364;2023-05-07T18:54:48;21.00;49.30
66140;DHT22;52945;51.908;8.364;2023-05-07T18:57:49;20.90;49.60
66140;DHT22;52945;51.908;8.364;2023-05-07T19:00:50;20.70;49.20
66140;DHT22;52945;51.908;8.364;2023-05-07T19:03:50;20.70;49.10
66140;DHT22;52945;51.908;8.364;2023-05-07T19:06:51;20.60;48.40